Southampton Township, New Jersey
Current Conditions -  °F | °C
As of 6:54 PM on Friday 28 Nov 2014 (Local Time) from KVAY Reporting Station
Clear Clear  
Wind Chill: 28°   Ceiling: Unl
Heat Index: 28°   Visibility: 10mi
Dew Point: 17°   Wind: 0mph
Humidity: 63%   Direction: NA
Pressure: 30.26"   Gusts: NA
Location:  39.7955°N, 74.6301°W
Report Text: KVAY 282354Z AUTO 00000KT 10SM CLR M02/M08 A3026 RMK AO2 SLP248 T10221083 10033 21022 51010
Loading
Personal Weather Stations






























Interactive Weather Map New forecast layout! Learn more

10-Day Weather Forecast

Advertisements
Track Severe Weather on mobile